sensor_id;sensor_type;location;lat;lon;timestamp;P1;P2;P0
45440;PMS5003;31189;38.790;-77.084;2023-12-20T00:01:41;3;3;
45440;PMS5003;31189;38.790;-77.084;2023-12-20T00:06:27;3;3;
45440;PMS5003;31189;38.790;-77.084;2023-12-20T00:08:58;6;5;
45440;PMS5003;31189;38.790;-77.084;2023-12-20T00:11:18;3;3;
45440;PMS5003;31189;38.790;-77.084;2023-12-20T00:13:44;14;5;
45440;PMS5003;31189;38.790;-77.084;2023-12-20T00:16:10;6;3;
45440;PMS5003;31189;38.790;-77.084;2023-12-20T00:18:35;4;4;
45440;PMS5003;31189;38.790;-77.084;2023-12-20T00:21:01;7;4;
45440;PMS5003;31189;38.790;-77.084;2023-12-20T00:23:27;4;3;
45440;PMS5003;31189;38.790;-77.084;2023-12-20T00:25:52;5;5;
45440;PMS5003;31189;38.790;-77.084;2023-12-20T00:28:18;6;4;
45440;PMS5003;31189;38.790;-77.084;2023-12-20T00:30:44;4;4;
45440;PMS5003;31189;38.790;-77.084;2023-12-20T00:33:10;4;4;
45440;PMS5003;31189;38.790;-77.084;2023-12-20T00:35:35;7;5;
45440;PMS5003;31189;38.790;-77.084;2023-12-20T00:38:01;4;3;
45440;PMS5003;31189;38.790;-77.084;2023-12-20T00:40:27;4;3;
45440;PMS5003;31189;38.790;-77.084;2023-12-20T00:42:52;6;4;
45440;PMS5003;31189;38.790;-77.084;2023-12-20T00:45:18;3;3;
45440;PMS5003;31189;38.790;-77.084;2023-12-20T00:47:45;6;3;
45440;PMS5003;31189;38.790;-77.084;2023-12-20T00:50:09;3;3;
45440;PMS5003;31189;38.790;-77.084;2023-12-20T00:52:40;6;4;
45440;PMS5003;31189;38.790;-77.084;2023-12-20T00:55:01;4;4;
45440;PMS5003;31189;38.790;-77.084;2023-12-20T00:57:32;4;4;
45440;PMS5003;31189;38.790;-77.084;2023-12-20T00:59:52;4;4;
45440;PMS5003;31189;38.790;-77.084;2023-12-20T01:04:44;5;5;
45440;PMS5003;31189;38.790;-77.084;2023-12-20T01:07:09;4;4;
45440;PMS5003;31189;38.790;-77.084;2023-12-20T01:09:35;5;5;
45440;PMS5003;31189;38.790;-77.084;2023-12-20T01:12:01;4;4;
45440;PMS5003;31189;38.790;-77.084;2023-12-20T01:14:26;4;4;
45440;PMS5003;31189;38.790;-77.084;2023-12-20T01:16:52;3;3;
45440;PMS5003;31189;38.790;-77.084;2023-12-20T01:19:19;3;3;
45440;PMS5003;31189;38.790;-77.084;2023-12-20T01:21:44;7;6;
45440;PMS5003;31189;38.790;-77.084;2023-12-20T01:24:09;5;5;
45440;PMS5003;31189;38.790;-77.084;2023-12-20T01:26:35;7;4;
45440;PMS5003;31189;38.790;-77.084;2023-12-20T01:29:01;4;4;
45440;PMS5003;31189;38.790;-77.084;2023-12-20T01:31:26;6;5;
45440;PMS5003;31189;38.790;-77.084;2023-12-20T01:33:53;7;5;
45440;PMS5003;31189;38.790;-77.084;2023-12-20T01:36:18;6;5;
45440;PMS5003;31189;38.790;-77.084;2023-12-20T01:38:43;5;5;
45440;PMS5003;31189;38.790;-77.084;2023-12-20T01:41:09;4;4;
45440;PMS5003;31189;38.790;-77.084;2023-12-20T01:43:35;6;5;
45440;PMS5003;31189;38.790;-77.084;2023-12-20T01:46:00;4;4;
45440;PMS5003;31189;38.790;-77.084;2023-12-20T01:48:26;5;4;
45440;PMS5003;31189;38.790;-77.084;2023-12-20T01:50:52;4;4;
45440;PMS5003;31189;38.790;-77.084;2023-12-20T01:53:18;4;4;
45440;PMS5003;31189;38.790;-77.084;2023-12-20T01:55:43;4;4;
45440;PMS5003;31189;38.790;-77.084;2023-12-20T01:58:09;5;5;
45440;PMS5003;31189;38.790;-77.084;2023-12-20T02:00:35;3;3;
45440;PMS5003;31189;38.790;-77.084;2023-12-20T02:03:01;5;5;
45440;PMS5003;31189;38.790;-77.084;2023-12-20T02:05:26;5;3;
45440;PMS5003;31189;38.790;-77.084;2023-12-20T02:07:52;7;5;
45440;PMS5003;31189;38.790;-77.084;2023-12-20T02:10:17;4;4;
45440;PMS5003;31189;38.790;-77.084;2023-12-20T02:12:43;5;5;
45440;PMS5003;31189;38.790;-77.084;2023-12-20T02:15:09;6;5;
45440;PMS5003;31189;38.790;-77.084;2023-12-20T02:17:35;7;6;
45440;PMS5003;31189;38.790;-77.084;2023-12-20T02:20:00;6;4;
45440;PMS5003;31189;38.790;-77.084;2023-12-20T02:22:26;5;5;
45440;PMS5003;31189;38.790;-77.084;2023-12-20T02:24:51;7;5;
45440;PMS5003;31189;38.790;-77.084;2023-12-20T02:27:17;9;5;
45440;PMS5003;31189;38.790;-77.084;2023-12-20T02:29:42;5;5;
45440;PMS5003;31189;38.790;-77.084;2023-12-20T02:32:08;7;5;
45440;PMS5003;31189;38.790;-77.084;2023-12-20T02:34:34;5;5;
45440;PMS5003;31189;38.790;-77.084;2023-12-20T02:37:00;5;5;
45440;PMS5003;31189;38.790;-77.084;2023-12-20T02:39:25;4;4;
45440;PMS5003;31189;38.790;-77.084;2023-12-20T02:41:51;5;5;
45440;PMS5003;31189;38.790;-77.084;2023-12-20T02:44:17;8;5;
45440;PMS5003;31189;38.790;-77.084;2023-12-20T02:46:42;7;6;
45440;PMS5003;31189;38.790;-77.084;2023-12-20T02:49:08;4;4;
45440;PMS5003;31189;38.790;-77.084;2023-12-20T02:51:34;7;6;
45440;PMS5003;31189;38.790;-77.084;2023-12-20T02:53:59;5;5;
45440;PMS5003;31189;38.790;-77.084;2023-12-20T02:56:25;6;6;
45440;PMS5003;31189;38.790;-77.084;2023-12-20T02:58:51;6;6;
45440;PMS5003;31189;38.790;-77.084;2023-12-20T03:01:16;5;5;
45440;PMS5003;31189;38.790;-77.084;2023-12-20T03:03:42;7;6;
45440;PMS5003;31189;38.790;-77.084;2023-12-20T03:06:08;5;5;
45440;PMS5003;31189;38.790;-77.084;2023-12-20T03:08:33;5;4;
45440;PMS5003;31189;38.790;-77.084;2023-12-20T03:10:59;4;4;
45440;PMS5003;31189;38.790;-77.084;2023-12-20T03:13:25;4;4;
45440;PMS5003;31189;38.790;-77.084;2023-12-20T03:15:50;5;5;
45440;PMS5003;31189;38.790;-77.084;2023-12-20T03:18:16;5;5;
45440;PMS5003;31189;38.790;-77.084;2023-12-20T03:20:42;7;7;
45440;PMS5003;31189;38.790;-77.084;2023-12-20T03:23:07;4;4;
45440;PMS5003;31189;38.790;-77.084;2023-12-20T03:25:33;5;4;
45440;PMS5003;31189;38.790;-77.084;2023-12-20T03:27:59;6;6;
45440;PMS5003;31189;38.790;-77.084;2023-12-20T03:30:24;6;6;
45440;PMS5003;31189;38.790;-77.084;2023-12-20T03:32:50;6;6;
45440;PMS5003;31189;38.790;-77.084;2023-12-20T03:35:16;8;6;
45440;PMS5003;31189;38.790;-77.084;2023-12-20T03:37:41;12;6;
45440;PMS5003;31189;38.790;-77.084;2023-12-20T03:40:07;5;5;
45440;PMS5003;31189;38.790;-77.084;2023-12-20T03:42:33;7;7;
45440;PMS5003;31189;38.790;-77.084;2023-12-20T03:44:58;5;4;
45440;PMS5003;31189;38.790;-77.084;2023-12-20T03:47:24;6;6;
45440;PMS5003;31189;38.790;-77.084;2023-12-20T03:49:49;14;6;
45440;PMS5003;31189;38.790;-77.084;2023-12-20T03:52:15;6;6;
45440;PMS5003;31189;38.790;-77.084;2023-12-20T03:54:41;10;7;
45440;PMS5003;31189;38.790;-77.084;2023-12-20T03:57:07;6;6;
45440;PMS5003;31189;38.790;-77.084;2023-12-20T03:59:34;8;8;
45440;PMS5003;31189;38.790;-77.084;2023-12-20T04:01:58;9;7;
45440;PMS5003;31189;38.790;-77.084;2023-12-20T04:04:23;5;4;
45440;PMS5003;31189;38.790;-77.084;2023-12-20T04:06:49;8;8;
45440;PMS5003;31189;38.790;-77.084;2023-12-20T04:09:15;8;6;
45440;PMS5003;31189;38.790;-77.084;2023-12-20T04:11:40;9;7;
45440;PMS5003;31189;38.790;-77.084;2023-12-20T04:14:06;9;9;
45440;PMS5003;31189;38.790;-77.084;2023-12-20T04:16:32;9;8;
45440;PMS5003;31189;38.790;-77.084;2023-12-20T04:18:57;9;9;
45440;PMS5003;31189;38.790;-77.084;2023-12-20T04:21:23;11;9;
45440;PMS5003;31189;38.790;-77.084;2023-12-20T04:23:49;11;11;
45440;PMS5003;31189;38.790;-77.084;2023-12-20T04:26:14;11;10;
45440;PMS5003;31189;38.790;-77.084;2023-12-20T04:28:40;12;11;
45440;PMS5003;31189;38.790;-77.084;2023-12-20T04:31:08;14;11;
45440;PMS5003;31189;38.790;-77.084;2023-12-20T04:33:31;15;11;
45440;PMS5003;31189;38.790;-77.084;2023-12-20T04:35:57;11;11;
45440;PMS5003;31189;38.790;-77.084;2023-12-20T04:38:23;12;10;
45440;PMS5003;31189;38.790;-77.084;2023-12-20T04:40:48;13;10;
45440;PMS5003;31189;38.790;-77.084;2023-12-20T04:43:14;8;8;
45440;PMS5003;31189;38.790;-77.084;2023-12-20T04:45:40;8;7;
45440;PMS5003;31189;38.790;-77.084;2023-12-20T04:48:06;13;8;
45440;PMS5003;31189;38.790;-77.084;2023-12-20T04:50:31;8;7;
45440;PMS5003;31189;38.790;-77.084;2023-12-20T04:52:57;8;8;
45440;PMS5003;31189;38.790;-77.084;2023-12-20T04:55:22;12;11;
45440;PMS5003;31189;38.790;-77.084;2023-12-20T04:57:48;13;11;
45440;PMS5003;31189;38.790;-77.084;2023-12-20T05:00:14;12;11;
45440;PMS5003;31189;38.790;-77.084;2023-12-20T05:02:40;8;8;
45440;PMS5003;31189;38.790;-77.084;2023-12-20T05:05:05;7;7;
45440;PMS5003;31189;38.790;-77.084;2023-12-20T05:07:31;14;11;
45440;PMS5003;31189;38.790;-77.084;2023-12-20T05:09:57;13;11;
45440;PMS5003;31189;38.790;-77.084;2023-12-20T05:12:22;12;10;
45440;PMS5003;31189;38.790;-77.084;2023-12-20T05:14:48;10;10;
45440;PMS5003;31189;38.790;-77.084;2023-12-20T05:17:14;13;11;
45440;PMS5003;31189;38.790;-77.084;2023-12-20T05:19:40;12;10;
45440;PMS5003;31189;38.790;-77.084;2023-12-20T05:22:05;8;8;
45440;PMS5003;31189;38.790;-77.084;2023-12-20T05:24:31;8;8;
45440;PMS5003;31189;38.790;-77.084;2023-12-20T05:26:56;10;10;
45440;PMS5003;31189;38.790;-77.084;2023-12-20T05:29:22;10;8;
45440;PMS5003;31189;38.790;-77.084;2023-12-20T05:31:48;12;8;
45440;PMS5003;31189;38.790;-77.084;2023-12-20T05:34:13;11;8;
45440;PMS5003;31189;38.790;-77.084;2023-12-20T05:36:39;7;7;
45440;PMS5003;31189;38.790;-77.084;2023-12-20T05:39:05;8;8;
45440;PMS5003;31189;38.790;-77.084;2023-12-20T05:41:30;11;8;
45440;PMS5003;31189;38.790;-77.084;2023-12-20T05:43:56;7;7;
45440;PMS5003;31189;38.790;-77.084;2023-12-20T05:46:21;10;7;
45440;PMS5003;31189;38.790;-77.084;2023-12-20T05:48:47;9;9;
45440;PMS5003;31189;38.790;-77.084;2023-12-20T05:51:13;11;11;
45440;PMS5003;31189;38.790;-77.084;2023-12-20T05:53:38;9;9;
45440;PMS5003;31189;38.790;-77.084;2023-12-20T05:56:04;9;9;
45440;PMS5003;31189;38.790;-77.084;2023-12-20T05:58:30;13;7;
45440;PMS5003;31189;38.790;-77.084;2023-12-20T06:00:55;9;9;
45440;PMS5003;31189;38.790;-77.084;2023-12-20T06:03:21;11;10;
45440;PMS5003;31189;38.790;-77.084;2023-12-20T06:05:47;10;8;
45440;PMS5003;31189;38.790;-77.084;2023-12-20T06:08:12;7;7;
45440;PMS5003;31189;38.790;-77.084;2023-12-20T06:10:38;15;10;
45440;PMS5003;31189;38.790;-77.084;2023-12-20T06:13:05;9;9;
45440;PMS5003;31189;38.790;-77.084;2023-12-20T06:15:29;9;9;
45440;PMS5003;31189;38.790;-77.084;2023-12-20T06:17:55;12;7;
45440;PMS5003;31189;38.790;-77.084;2023-12-20T06:20:21;8;8;
45440;PMS5003;31189;38.790;-77.084;2023-12-20T06:22:46;10;8;
45440;PMS5003;31189;38.790;-77.084;2023-12-20T06:25:12;7;7;
45440;PMS5003;31189;38.790;-77.084;2023-12-20T06:27:38;7;7;
45440;PMS5003;31189;38.790;-77.084;2023-12-20T06:30:04;11;9;
45440;PMS5003;31189;38.790;-77.084;2023-12-20T06:32:29;11;7;
45440;PMS5003;31189;38.790;-77.084;2023-12-20T06:34:55;11;10;
45440;PMS5003;31189;38.790;-77.084;2023-12-20T06:37:21;10;8;
45440;PMS5003;31189;38.790;-77.084;2023-12-20T06:39:46;7;7;
45440;PMS5003;31189;38.790;-77.084;2023-12-20T06:42:12;13;11;
45440;PMS5003;31189;38.790;-77.084;2023-12-20T06:44:38;11;10;
45440;PMS5003;31189;38.790;-77.084;2023-12-20T06:47:03;10;8;
45440;PMS5003;31189;38.790;-77.084;2023-12-20T06:49:29;8;8;
45440;PMS5003;31189;38.790;-77.084;2023-12-20T06:51:55;11;8;
45440;PMS5003;31189;38.790;-77.084;2023-12-20T06:54:20;6;6;
45440;PMS5003;31189;38.790;-77.084;2023-12-20T06:56:46;10;8;
45440;PMS5003;31189;38.790;-77.084;2023-12-20T06:59:12;13;11;
45440;PMS5003;31189;38.790;-77.084;2023-12-20T07:01:37;11;11;
45440;PMS5003;31189;38.790;-77.084;2023-12-20T07:04:04;10;8;
45440;PMS5003;31189;38.790;-77.084;2023-12-20T07:06:29;11;10;
45440;PMS5003;31189;38.790;-77.084;2023-12-20T07:08:55;14;8;
45440;PMS5003;31189;38.790;-77.084;2023-12-20T07:11:20;7;7;
45440;PMS5003;31189;38.790;-77.084;2023-12-20T07:13:46;10;7;
45440;PMS5003;31189;38.790;-77.084;2023-12-20T07:16:12;10;8;
45440;PMS5003;31189;38.790;-77.084;2023-12-20T07:18:37;12;10;
45440;PMS5003;31189;38.790;-77.084;2023-12-20T07:21:03;8;8;
45440;PMS5003;31189;38.790;-77.084;2023-12-20T07:23:29;11;6;
45440;PMS5003;31189;38.790;-77.084;2023-12-20T07:25:54;11;7;
45440;PMS5003;31189;38.790;-77.084;2023-12-20T07:28:20;8;8;
45440;PMS5003;31189;38.790;-77.084;2023-12-20T07:30:46;13;10;
45440;PMS5003;31189;38.790;-77.084;2023-12-20T07:33:11;12;11;
45440;PMS5003;31189;38.790;-77.084;2023-12-20T07:35:37;12;8;
45440;PMS5003;31189;38.790;-77.084;2023-12-20T07:38:03;11;11;
45440;PMS5003;31189;38.790;-77.084;2023-12-20T07:40:29;10;8;
45440;PMS5003;31189;38.790;-77.084;2023-12-20T07:42:54;10;10;
45440;PMS5003;31189;38.790;-77.084;2023-12-20T07:45:20;8;8;
45440;PMS5003;31189;38.790;-77.084;2023-12-20T07:47:46;11;8;
45440;PMS5003;31189;38.790;-77.084;2023-12-20T07:50:11;8;6;
45440;PMS5003;31189;38.790;-77.084;2023-12-20T07:52:37;6;6;
45440;PMS5003;31189;38.790;-77.084;2023-12-20T07:55:02;12;8;
45440;PMS5003;31189;38.790;-77.084;2023-12-20T07:57:28;10;8;
45440;PMS5003;31189;38.790;-77.084;2023-12-20T07:59:54;10;10;
45440;PMS5003;31189;38.790;-77.084;2023-12-20T08:02:19;8;8;
45440;PMS5003;31189;38.790;-77.084;2023-12-20T08:04:45;12;11;
45440;PMS5003;31189;38.790;-77.084;2023-12-20T08:07:11;13;10;
45440;PMS5003;31189;38.790;-77.084;2023-12-20T08:09:36;8;7;
45440;PMS5003;31189;38.790;-77.084;2023-12-20T08:12:02;10;8;
45440;PMS5003;31189;38.790;-77.084;2023-12-20T08:14:28;16;10;
45440;PMS5003;31189;38.790;-77.084;2023-12-20T08:16:53;10;7;
45440;PMS5003;31189;38.790;-77.084;2023-12-20T08:19:19;12;10;
45440;PMS5003;31189;38.790;-77.084;2023-12-20T08:21:45;10;10;
45440;PMS5003;31189;38.790;-77.084;2023-12-20T08:24:10;11;8;
45440;PMS5003;31189;38.790;-77.084;2023-12-20T08:26:36;9;8;
45440;PMS5003;31189;38.790;-77.084;2023-12-20T08:29:02;7;6;
45440;PMS5003;31189;38.790;-77.084;2023-12-20T08:31:27;8;7;
45440;PMS5003;31189;38.790;-77.084;2023-12-20T08:33:53;12;10;
45440;PMS5003;31189;38.790;-77.084;2023-12-20T08:36:19;6;6;
45440;PMS5003;31189;38.790;-77.084;2023-12-20T08:38:44;13;10;
45440;PMS5003;31189;38.790;-77.084;2023-12-20T08:41:10;10;7;
45440;PMS5003;31189;38.790;-77.084;2023-12-20T08:43:36;10;10;
45440;PMS5003;31189;38.790;-77.084;2023-12-20T08:46:01;14;11;
45440;PMS5003;31189;38.790;-77.084;2023-12-20T08:48:27;11;10;
45440;PMS5003;31189;38.790;-77.084;2023-12-20T08:50:53;10;9;
45440;PMS5003;31189;38.790;-77.084;2023-12-20T08:53:19;12;12;
45440;PMS5003;31189;38.790;-77.084;2023-12-20T08:55:44;13;9;
45440;PMS5003;31189;38.790;-77.084;2023-12-20T08:58:10;9;9;
45440;PMS5003;31189;38.790;-77.084;2023-12-20T09:00:35;12;10;
45440;PMS5003;31189;38.790;-77.084;2023-12-20T09:03:01;13;10;
45440;PMS5003;31189;38.790;-77.084;2023-12-20T09:05:27;10;9;
45440;PMS5003;31189;38.790;-77.084;2023-12-20T09:07:52;11;9;
45440;PMS5003;31189;38.790;-77.084;2023-12-20T09:10:18;11;9;
45440;PMS5003;31189;38.790;-77.084;2023-12-20T09:12:43;8;7;
45440;PMS5003;31189;38.790;-77.084;2023-12-20T09:15:09;10;9;
45440;PMS5003;31189;38.790;-77.084;2023-12-20T09:17:34;10;10;
45440;PMS5003;31189;38.790;-77.084;2023-12-20T09:20:00;12;9;
45440;PMS5003;31189;38.790;-77.084;2023-12-20T09:22:26;11;9;
45440;PMS5003;31189;38.790;-77.084;2023-12-20T09:24:51;12;10;
45440;PMS5003;31189;38.790;-77.084;2023-12-20T09:27:17;11;10;
45440;PMS5003;31189;38.790;-77.084;2023-12-20T09:29:42;13;11;
45440;PMS5003;31189;38.790;-77.084;2023-12-20T09:32:08;12;9;
45440;PMS5003;31189;38.790;-77.084;2023-12-20T09:34:34;10;10;
45440;PMS5003;31189;38.790;-77.084;2023-12-20T09:37:01;11;10;
45440;PMS5003;31189;38.790;-77.084;2023-12-20T09:39:25;15;10;
45440;PMS5003;31189;38.790;-77.084;2023-12-20T09:42:00;10;10;
45440;PMS5003;31189;38.790;-77.084;2023-12-20T09:44:16;20;11;
45440;PMS5003;31189;38.790;-77.084;2023-12-20T09:46:42;11;11;
45440;PMS5003;31189;38.790;-77.084;2023-12-20T09:49:07;7;7;
45440;PMS5003;31189;38.790;-77.084;2023-12-20T09:51:33;10;9;
45440;PMS5003;31189;38.790;-77.084;2023-12-20T09:53:59;12;12;
45440;PMS5003;31189;38.790;-77.084;2023-12-20T09:56:24;12;11;
45440;PMS5003;31189;38.790;-77.084;2023-12-20T09:58:50;11;11;
45440;PMS5003;31189;38.790;-77.084;2023-12-20T10:01:16;17;12;
45440;PMS5003;31189;38.790;-77.084;2023-12-20T10:03:41;10;10;
45440;PMS5003;31189;38.790;-77.084;2023-12-20T10:06:07;12;10;
45440;PMS5003;31189;38.790;-77.084;2023-12-20T10:08:32;10;10;
45440;PMS5003;31189;38.790;-77.084;2023-12-20T10:10:58;7;7;
45440;PMS5003;31189;38.790;-77.084;2023-12-20T10:13:24;13;12;
45440;PMS5003;31189;38.790;-77.084;2023-12-20T10:15:49;11;11;
45440;PMS5003;31189;38.790;-77.084;2023-12-20T10:18:16;13;10;
45440;PMS5003;31189;38.790;-77.084;2023-12-20T10:20:41;10;7;
45440;PMS5003;31189;38.790;-77.084;2023-12-20T10:23:07;10;9;
45440;PMS5003;31189;38.790;-77.084;2023-12-20T10:25:32;14;11;
45440;PMS5003;31189;38.790;-77.084;2023-12-20T10:30:24;12;10;
45440;PMS5003;31189;38.790;-77.084;2023-12-20T10:32:49;11;10;
45440;PMS5003;31189;38.790;-77.084;2023-12-20T10:35:15;11;11;
45440;PMS5003;31189;38.790;-77.084;2023-12-20T10:37:41;12;10;
45440;PMS5003;31189;38.790;-77.084;2023-12-20T10:40:07;15;13;
45440;PMS5003;31189;38.790;-77.084;2023-12-20T10:42:33;11;9;
45440;PMS5003;31189;38.790;-77.084;2023-12-20T10:44:58;18;9;
45440;PMS5003;31189;38.790;-77.084;2023-12-20T10:47:24;13;10;
45440;PMS5003;31189;38.790;-77.084;2023-12-20T10:49:49;16;10;
45440;PMS5003;31189;38.790;-77.084;2023-12-20T10:52:15;13;10;
45440;PMS5003;31189;38.790;-77.084;2023-12-20T10:54:40;12;11;
45440;PMS5003;31189;38.790;-77.084;2023-12-20T10:57:06;16;13;
45440;PMS5003;31189;38.790;-77.084;2023-12-20T10:59:32;12;10;
45440;PMS5003;31189;38.790;-77.084;2023-12-20T11:01:57;18;12;
45440;PMS5003;31189;38.790;-77.084;2023-12-20T11:04:25;14;13;
45440;PMS5003;31189;38.790;-77.084;2023-12-20T11:06:49;18;17;
45440;PMS5003;31189;38.790;-77.084;2023-12-20T11:09:17;17;13;
45440;PMS5003;31189;38.790;-77.084;2023-12-20T11:11:44;17;13;
45440;PMS5003;31189;38.790;-77.084;2023-12-20T11:14:06;24;18;
45440;PMS5003;31189;38.790;-77.084;2023-12-20T11:16:31;14;13;
45440;PMS5003;31189;38.790;-77.084;2023-12-20T11:18:57;12;11;
45440;PMS5003;31189;38.790;-77.084;2023-12-20T11:21:23;19;16;
45440;PMS5003;31189;38.790;-77.084;2023-12-20T11:23:48;14;13;
45440;PMS5003;31189;38.790;-77.084;2023-12-20T11:26:15;13;12;
45440;PMS5003;31189;38.790;-77.084;2023-12-20T11:28:40;16;13;
45440;PMS5003;31189;38.790;-77.084;2023-12-20T11:31:06;19;15;
45440;PMS5003;31189;38.790;-77.084;2023-12-20T11:33:32;30;13;
45440;PMS5003;31189;38.790;-77.084;2023-12-20T11:35:57;12;12;
45440;PMS5003;31189;38.790;-77.084;2023-12-20T11:38:23;10;10;
45440;PMS5003;31189;38.790;-77.084;2023-12-20T11:40:49;16;12;
45440;PMS5003;31189;38.790;-77.084;2023-12-20T11:43:14;13;12;
45440;PMS5003;31189;38.790;-77.084;2023-12-20T11:45:42;13;10;
45440;PMS5003;31189;38.790;-77.084;2023-12-20T11:48:05;16;12;
45440;PMS5003;31189;38.790;-77.084;2023-12-20T11:50:31;15;11;
45440;PMS5003;31189;38.790;-77.084;2023-12-20T11:52:57;18;13;
45440;PMS5003;31189;38.790;-77.084;2023-12-20T11:55:22;10;10;
45440;PMS5003;31189;38.790;-77.084;2023-12-20T11:57:48;17;13;
45440;PMS5003;31189;38.790;-77.084;2023-12-20T12:00:14;16;12;
45440;PMS5003;31189;38.790;-77.084;2023-12-20T12:02:39;14;12;
45440;PMS5003;31189;38.790;-77.084;2023-12-20T12:05:06;13;12;
45440;PMS5003;31189;38.790;-77.084;2023-12-20T12:07:31;13;11;
45440;PMS5003;31189;38.790;-77.084;2023-12-20T12:09:57;16;12;
45440;PMS5003;31189;38.790;-77.084;2023-12-20T12:12:22;12;11;
45440;PMS5003;31189;38.790;-77.084;2023-12-20T12:14:48;10;10;
45440;PMS5003;31189;38.790;-77.084;2023-12-20T12:17:14;15;10;
45440;PMS5003;31189;38.790;-77.084;2023-12-20T12:19:39;10;10;
45440;PMS5003;31189;38.790;-77.084;2023-12-20T12:22:05;12;12;
45440;PMS5003;31189;38.790;-77.084;2023-12-20T12:24:30;20;12;
45440;PMS5003;31189;38.790;-77.084;2023-12-20T12:26:57;13;13;
45440;PMS5003;31189;38.790;-77.084;2023-12-20T12:29:22;10;10;
45440;PMS5003;31189;38.790;-77.084;2023-12-20T12:31:48;14;13;
45440;PMS5003;31189;38.790;-77.084;2023-12-20T12:34:13;12;11;
45440;PMS5003;31189;38.790;-77.084;2023-12-20T12:36:39;24;13;
45440;PMS5003;31189;38.790;-77.084;2023-12-20T12:39:05;18;15;
45440;PMS5003;31189;38.790;-77.084;2023-12-20T12:41:31;19;13;
45440;PMS5003;31189;38.790;-77.084;2023-12-20T12:43:56;12;11;
45440;PMS5003;31189;38.790;-77.084;2023-12-20T12:46:22;25;13;
45440;PMS5003;31189;38.790;-77.084;2023-12-20T12:48:47;14;12;
45440;PMS5003;31189;38.790;-77.084;2023-12-20T12:51:13;18;12;
45440;PMS5003;31189;38.790;-77.084;2023-12-20T12:53:39;11;10;
45440;PMS5003;31189;38.790;-77.084;2023-12-20T12:56:04;11;10;
45440;PMS5003;31189;38.790;-77.084;2023-12-20T12:58:30;13;11;
45440;PMS5003;31189;38.790;-77.084;2023-12-20T13:00:56;14;11;
45440;PMS5003;31189;38.790;-77.084;2023-12-20T13:03:21;14;11;
45440;PMS5003;31189;38.790;-77.084;2023-12-20T13:05:47;17;13;
45440;PMS5003;31189;38.790;-77.084;2023-12-20T13:08:13;14;13;
45440;PMS5003;31189;38.790;-77.084;2023-12-20T13:10:38;15;12;
45440;PMS5003;31189;38.790;-77.084;2023-12-20T13:13:04;12;12;
45440;PMS5003;31189;38.790;-77.084;2023-12-20T13:15:30;12;11;
45440;PMS5003;31189;38.790;-77.084;2023-12-20T13:17:56;11;11;
45440;PMS5003;31189;38.790;-77.084;2023-12-20T13:20:21;13;11;
45440;PMS5003;31189;38.790;-77.084;2023-12-20T13:22:47;10;8;
45440;PMS5003;31189;38.790;-77.084;2023-12-20T13:25:13;13;10;
45440;PMS5003;31189;38.790;-77.084;2023-12-20T13:27:38;12;12;
45440;PMS5003;31189;38.790;-77.084;2023-12-20T13:30:04;13;10;
45440;PMS5003;31189;38.790;-77.084;2023-12-20T13:32:29;13;11;
45440;PMS5003;31189;38.790;-77.084;2023-12-20T13:34:55;12;12;
45440;PMS5003;31189;38.790;-77.084;2023-12-20T13:37:21;14;11;
45440;PMS5003;31189;38.790;-77.084;2023-12-20T13:39:46;13;11;
45440;PMS5003;31189;38.790;-77.084;2023-12-20T13:42:12;12;12;
45440;PMS5003;31189;38.790;-77.084;2023-12-20T13:44:38;12;11;
45440;PMS5003;31189;38.790;-77.084;2023-12-20T13:47:04;10;10;
45440;PMS5003;31189;38.790;-77.084;2023-12-20T13:49:29;11;9;
45440;PMS5003;31189;38.790;-77.084;2023-12-20T13:51:55;11;10;
45440;PMS5003;31189;38.790;-77.084;2023-12-20T13:54:20;10;10;
45440;PMS5003;31189;38.790;-77.084;2023-12-20T13:56:46;10;10;
45440;PMS5003;31189;38.790;-77.084;2023-12-20T13:59:12;14;9;
45440;PMS5003;31189;38.790;-77.084;2023-12-20T14:01:37;10;9;
45440;PMS5003;31189;38.790;-77.084;2023-12-20T14:04:03;11;10;
45440;PMS5003;31189;38.790;-77.084;2023-12-20T14:06:29;10;10;
45440;PMS5003;31189;38.790;-77.084;2023-12-20T14:08:54;11;10;
45440;PMS5003;31189;38.790;-77.084;2023-12-20T14:11:21;9;9;
45440;PMS5003;31189;38.790;-77.084;2023-12-20T14:13:46;7;7;
45440;PMS5003;31189;38.790;-77.084;2023-12-20T14:16:11;11;7;
45440;PMS5003;31189;38.790;-77.084;2023-12-20T14:18:37;8;8;
45440;PMS5003;31189;38.790;-77.084;2023-12-20T14:21:03;7;6;
45440;PMS5003;31189;38.790;-77.084;2023-12-20T14:23:28;7;7;
45440;PMS5003;31189;38.790;-77.084;2023-12-20T14:25:54;7;7;
45440;PMS5003;31189;38.790;-77.084;2023-12-20T14:28:20;8;7;
45440;PMS5003;31189;38.790;-77.084;2023-12-20T14:30:46;10;8;
45440;PMS5003;31189;38.790;-77.084;2023-12-20T14:33:11;7;7;
45440;PMS5003;31189;38.790;-77.084;2023-12-20T14:35:37;12;10;
45440;PMS5003;31189;38.790;-77.084;2023-12-20T14:38:02;7;5;
45440;PMS5003;31189;38.790;-77.084;2023-12-20T14:40:28;10;8;
45440;PMS5003;31189;38.790;-77.084;2023-12-20T14:42:54;10;7;
45440;PMS5003;31189;38.790;-77.084;2023-12-20T14:45:20;13;8;
45440;PMS5003;31189;38.790;-77.084;2023-12-20T14:47:45;7;7;
45440;PMS5003;31189;38.790;-77.084;2023-12-20T14:50:11;15;6;
45440;PMS5003;31189;38.790;-77.084;2023-12-20T14:52:36;7;7;
45440;PMS5003;31189;38.790;-77.084;2023-12-20T14:55:02;6;6;
45440;PMS5003;31189;38.790;-77.084;2023-12-20T14:57:27;10;7;
45440;PMS5003;31189;38.790;-77.084;2023-12-20T14:59:53;10;7;
45440;PMS5003;31189;38.790;-77.084;2023-12-20T15:02:19;14;8;
45440;PMS5003;31189;38.790;-77.084;2023-12-20T15:04:45;9;6;
45440;PMS5003;31189;38.790;-77.084;2023-12-20T15:07:10;10;9;
45440;PMS5003;31189;38.790;-77.084;2023-12-20T15:09:36;13;10;
45440;PMS5003;31189;38.790;-77.084;2023-12-20T15:12:02;9;8;
45440;PMS5003;31189;38.790;-77.084;2023-12-20T15:14:27;9;7;
45440;PMS5003;31189;38.790;-77.084;2023-12-20T15:16:53;7;7;
45440;PMS5003;31189;38.790;-77.084;2023-12-20T15:19:19;8;7;
45440;PMS5003;31189;38.790;-77.084;2023-12-20T15:21:44;6;6;
45440;PMS5003;31189;38.790;-77.084;2023-12-20T15:24:10;9;6;
45440;PMS5003;31189;38.790;-77.084;2023-12-20T15:26:37;7;6;
45440;PMS5003;31189;38.790;-77.084;2023-12-20T15:29:01;5;5;
45440;PMS5003;31189;38.790;-77.084;2023-12-20T15:31:27;7;7;
45440;PMS5003;31189;38.790;-77.084;2023-12-20T15:33:52;7;6;
45440;PMS5003;31189;38.790;-77.084;2023-12-20T15:36:18;8;7;
45440;PMS5003;31189;38.790;-77.084;2023-12-20T15:38:44;10;9;
45440;PMS5003;31189;38.790;-77.084;2023-12-20T15:41:09;6;6;
45440;PMS5003;31189;38.790;-77.084;2023-12-20T15:43:35;7;6;
45440;PMS5003;31189;38.790;-77.084;2023-12-20T15:46:01;7;7;
45440;PMS5003;31189;38.790;-77.084;2023-12-20T15:48:26;5;5;
45440;PMS5003;31189;38.790;-77.084;2023-12-20T15:50:52;9;8;
45440;PMS5003;31189;38.790;-77.084;2023-12-20T15:53:18;9;7;
45440;PMS5003;31189;38.790;-77.084;2023-12-20T15:55:43;7;7;
45440;PMS5003;31189;38.790;-77.084;2023-12-20T15:58:09;5;5;